Time;durP1;ratioP1;P1;durP2;ratioP2;P2;SDS_P1;SDS_P2;PMS_P1;PMS_P2;Temp;Humidity;BMP_temperature;BMP_pressure;BME280_temperature;BME280_humidity;BME280_pressure;Samples;Min_cycle;Max_cycle;Signal;HPM_P1;HPM_P2
2023/01/14 00:00:21;;;;;;;6.50;3.20;;;;;;;;;;102284;1340;41187;-33
2023/01/14 00:03:16;;;;;;;5.20;3.10;;;;;;;;;;102264;1340;33893;-34
2023/01/14 00:06:02;;;;;;;5.30;3.10;;;;;;;;;;102120;1340;31209;-34
2023/01/14 00:08:42;;;;;;;5.10;3.20;;;;;;;;;;102285;1340;28730;-35
2023/01/14 00:11:45;;;;;;;5.60;3.20;;;;;;;;;;102259;1340;30372;-35
2023/01/14 00:14:16;;;;;;;5.20;2.90;;;;;;;;;;102338;1340;30967;-35
2023/01/14 00:16:58;;;;;;;5.40;3.00;;;;;;;;;;102293;1340;29499;-35
2023/01/14 00:19:38;;;;;;;5.40;3.30;;;;;;;;;;102288;1340;28845;-35
2023/01/14 00:22:16;;;;;;;5.90;3.40;;;;;;;;;;102304;1340;30253;-35
2023/01/14 00:24:58;;;;;;;5.30;3.10;;;;;;;;;;102278;1340;31172;-35
2023/01/14 00:27:35;;;;;;;5.70;3.00;;;;;;;;;;102299;1340;29752;-33
2023/01/14 00:30:15;;;;;;;5.80;3.20;;;;;;;;;;102292;1340;28739;-32
2023/01/14 00:32:52;;;;;;;5.40;3.30;;;;;;;;;;102307;1340;30877;-32
2023/01/14 00:35:27;;;;;;;5.20;3.10;;;;;;;;;;102315;1340;30908;-32
2023/01/14 00:38:05;;;;;;;5.60;3.30;;;;;;;;;;102295;1340;30754;-32
2023/01/14 00:40:40;;;;;;;5.80;3.00;;;;;;;;;;102270;1340;29275;-32
2023/01/14 00:43:18;;;;;;;5.80;3.30;;;;;;;;;;102337;1340;30469;-35
2023/01/14 00:45:54;;;;;;;6.30;3.20;;;;;;;;;;102309;1340;31322;-32
2023/01/14 00:48:29;;;;;;;5.40;3.20;;;;;;;;;;102277;1340;29695;-33
2023/01/14 00:51:08;;;;;;;5.40;3.10;;;;;;;;;;102272;1340;28956;-32
2023/01/14 00:53:45;;;;;;;5.80;3.30;;;;;;;;;;102321;1340;30377;-36
2023/01/14 00:56:23;;;;;;;5.40;3.20;;;;;;;;;;102320;1340;31131;-36
2023/01/14 00:58:58;;;;;;;5.60;3.10;;;;;;;;;;102313;1340;29942;-36
2023/01/14 01:01:32;;;;;;;5.70;3.30;;;;;;;;;;102285;1340;38567;-36
2023/01/14 01:04:07;;;;;;;5.50;3.10;;;;;;;;;;102306;1340;30343;-36
2023/01/14 01:06:42;;;;;;;5.30;3.10;;;;;;;;;;102305;1340;32744;-36
2023/01/14 01:09:17;;;;;;;5.90;3.10;;;;;;;;;;102247;1340;29427;-36
2023/01/14 01:11:52;;;;;;;5.80;3.20;;;;;;;;;;102290;1340;39148;-36
2023/01/14 01:14:27;;;;;;;5.40;3.10;;;;;;;;;;102283;1340;30067;-36
2023/01/14 01:17:02;;;;;;;5.50;3.20;;;;;;;;;;102303;1340;31348;-36
2023/01/14 01:19:37;;;;;;;6.10;3.40;;;;;;;;;;102238;1340;29327;-34
2023/01/14 01:22:15;;;;;;;5.80;3.20;;;;;;;;;;102293;1340;37906;-33
2023/01/14 01:24:51;;;;;;;5.50;3.00;;;;;;;;;;102153;1340;176831;-33
2023/01/14 01:27:26;;;;;;;6.00;3.30;;;;;;;;;;102276;1340;31232;-33
2023/01/14 01:30:01;;;;;;;5.20;3.00;;;;;;;;;;102263;1340;29562;-33
2023/01/14 01:32:35;;;;;;;6.00;3.00;;;;;;;;;;102306;1340;29178;-33
2023/01/14 01:35:12;;;;;;;5.70;3.30;;;;;;;;;;102306;1340;30717;-34
2023/01/14 01:37:48;;;;;;;5.40;3.10;;;;;;;;;;102316;1340;31232;-33
2023/01/14 01:40:25;;;;;;;6.00;3.40;;;;;;;;;;102287;1340;30831;-33
2023/01/14 01:43:00;;;;;;;6.60;3.40;;;;;;;;;;102283;1340;28889;-33
2023/01/14 01:45:45;;;;;;;6.00;3.20;;;;;;;;;;102304;1340;30465;-33
2023/01/14 01:48:26;;;;;;;5.20;3.00;;;;;;;;;;102301;1340;31231;-33
2023/01/14 01:51:07;;;;;;;5.30;2.90;;;;;;;;;;102306;1340;29735;-33
2023/01/14 01:53:47;;;;;;;6.00;3.40;;;;;;;;;;102310;1340;29045;-33
2023/01/14 01:56:27;;;;;;;5.10;2.90;;;;;;;;;;102299;1340;30393;-33
2023/01/14 01:59:08;;;;;;;5.70;3.30;;;;;;;;;;102323;1340;30815;-34
2023/01/14 02:01:48;;;;;;;5.40;2.90;;;;;;;;;;102285;1340;31154;-34
2023/01/14 02:04:23;;;;;;;5.10;2.90;;;;;;;;;;102208;1340;29112;-34
2023/01/14 02:07:03;;;;;;;5.70;3.10;;;;;;;;;;102308;1340;30217;-34
2023/01/14 02:09:40;;;;;;;5.10;2.90;;;;;;;;;;102307;1340;31486;-33
2023/01/14 02:12:30;;;;;;;5.50;3.10;;;;;;;;;;102293;1340;29776;-33
2023/01/14 02:15:30;;;;;;;5.50;3.00;;;;;;;;;;102295;1340;29250;-33
2023/01/14 02:18:31;;;;;;;5.40;3.10;;;;;;;;;;102297;1340;30567;-34
2023/01/14 02:21:15;;;;;;;4.90;2.80;;;;;;;;;;102275;1340;31481;-33
2023/01/14 02:24:45;;;;;;;5.20;3.00;;;;;;;;;;102307;1340;29755;-33
2023/01/14 02:27:44;;;;;;;5.30;3.10;;;;;;;;;;102293;1340;29131;-34
2023/01/14 02:30:45;;;;;;;5.00;3.20;;;;;;;;;;102326;1340;30312;-33
2023/01/14 02:33:45;;;;;;;5.20;3.20;;;;;;;;;;102186;1340;176777;-33
2023/01/14 02:36:40;;;;;;;5.20;3.10;;;;;;;;;;102280;1340;29956;-33
2023/01/14 02:39:26;;;;;;;5.30;3.00;;;;;;;;;;102309;1340;28967;-33
2023/01/14 02:45:11;;;;;;;5.20;2.90;;;;;;;;;;102285;1340;30909;-33
2023/01/14 02:47:55;;;;;;;5.00;2.90;;;;;;;;;;102299;1340;29745;-33
2023/01/14 02:50:31;;;;;;;5.00;2.90;;;;;;;;;;102280;1340;28929;-33
2023/01/14 02:53:12;;;;;;;5.50;3.00;;;;;;;;;;102308;1340;33205;-33
2023/01/14 02:55:50;;;;;;;5.50;3.10;;;;;;;;;;102292;1340;31021;-33
2023/01/14 02:58:49;;;;;;;5.60;3.10;;;;;;;;;;102291;1340;29764;-33
2023/01/14 03:01:43;;;;;;;5.60;3.00;;;;;;;;;;102314;1340;28787;-33
2023/01/14 03:04:40;;;;;;;5.10;3.10;;;;;;;;;;102258;1340;40405;-34
2023/01/14 03:07:23;;;;;;;5.50;2.90;;;;;;;;;;102286;1340;30897;-34
2023/01/14 03:10:08;;;;;;;5.80;3.30;;;;;;;;;;102282;1340;30376;-33
2023/01/14 03:12:54;;;;;;;5.20;3.10;;;;;;;;;;102254;1340;28759;-34
2023/01/14 03:15:38;;;;;;;6.00;3.20;;;;;;;;;;102281;1340;29998;-33
2023/01/14 03:18:26;;;;;;;5.00;3.10;;;;;;;;;;102307;1340;31462;-33
2023/01/14 03:21:10;;;;;;;5.20;3.10;;;;;;;;;;102281;1340;29825;-34
2023/01/14 03:23:51;;;;;;;5.40;2.90;;;;;;;;;;102264;1340;28898;-33
2023/01/14 03:26:32;;;;;;;5.10;2.70;;;;;;;;;;102300;1340;31545;-33
2023/01/14 03:29:14;;;;;;;5.30;2.90;;;;;;;;;;102274;1340;32488;-33
2023/01/14 03:31:56;;;;;;;5.40;2.90;;;;;;;;;;102296;1340;30891;-33
2023/01/14 03:34:36;;;;;;;5.10;2.90;;;;;;;;;;102271;1340;28760;-33
2023/01/14 03:37:18;;;;;;;5.30;2.90;;;;;;;;;;102286;1340;30259;-33
2023/01/14 03:39:55;;;;;;;5.20;3.10;;;;;;;;;;102311;1340;31222;-33
2023/01/14 03:42:36;;;;;;;5.80;3.20;;;;;;;;;;102286;1340;29708;-33
2023/01/14 03:45:21;;;;;;;5.00;2.90;;;;;;;;;;102263;1340;37560;-33
2023/01/14 03:47:57;;;;;;;5.20;2.90;;;;;;;;;;102305;1340;31988;-33
2023/01/14 03:50:45;;;;;;;4.80;2.80;;;;;;;;;;102280;1340;31173;-33
2023/01/14 03:53:28;;;;;;;5.10;3.00;;;;;;;;;;102244;1340;29767;-33
2023/01/14 03:56:14;;;;;;;5.70;3.00;;;;;;;;;;102305;1340;29005;-33
2023/01/14 03:58:57;;;;;;;5.50;2.60;;;;;;;;;;101685;1340;893012;-34
2023/01/14 04:01:46;;;;;;;5.00;2.80;;;;;;;;;;102342;1340;31035;-34
2023/01/14 04:04:22;;;;;;;6.30;3.10;;;;;;;;;;102268;1340;30898;-33
2023/01/14 04:06:58;;;;;;;4.70;2.70;;;;;;;;;;102292;1340;28924;-33
2023/01/14 04:09:32;;;;;;;5.40;3.10;;;;;;;;;;102315;1340;30575;-33
2023/01/14 04:12:07;;;;;;;5.10;2.80;;;;;;;;;;102286;1340;31295;-33
2023/01/14 04:17:37;;;;;;;4.80;2.90;;;;;;;;;;102309;1340;30459;-33
2023/01/14 04:20:18;;;;;;;4.60;2.80;;;;;;;;;;102336;1340;30378;-33
2023/01/14 04:22:57;;;;;;;4.90;2.70;;;;;;;;;;102274;1340;31259;-33
2023/01/14 04:25:38;;;;;;;5.40;2.80;;;;;;;;;;102274;1340;29672;-33
2023/01/14 04:28:14;;;;;;;5.30;3.00;;;;;;;;;;102257;1340;28771;-34
2023/01/14 04:30:50;;;;;;;5.20;3.00;;;;;;;;;;102277;1340;30398;-33
2023/01/14 04:33:26;;;;;;;5.00;2.60;;;;;;;;;;102277;1340;31227;-33
2023/01/14 04:36:00;;;;;;;5.30;2.70;;;;;;;;;;102290;1340;29416;-33
2023/01/14 04:38:34;;;;;;;5.00;2.60;;;;;;;;;;102304;1340;31042;-33
2023/01/14 04:42:25;;;;;;;5.30;2.80;;;;;;;;;;102300;1340;31859;-33
2023/01/14 04:44:10;;;;;;;5.60;3.10;;;;;;;;;;102262;1340;31089;-33
2023/01/14 04:46:45;;;;;;;5.00;2.80;;;;;;;;;;102262;1340;39149;-33
2023/01/14 04:49:20;;;;;;;4.50;2.60;;;;;;;;;;102275;1340;28866;-33
2023/01/14 04:51:57;;;;;;;5.20;2.80;;;;;;;;;;102272;1340;30061;-33
2023/01/14 04:54:32;;;;;;;4.60;2.60;;;;;;;;;;102280;1340;31399;-33
2023/01/14 04:57:11;;;;;;;5.10;2.40;;;;;;;;;;102283;1340;40068;-34
2023/01/14 04:59:49;;;;;;;5.10;2.90;;;;;;;;;;102323;1340;28651;-34
2023/01/14 05:02:23;;;;;;;5.20;2.70;;;;;;;;;;102259;1340;30620;-33
2023/01/14 05:04:57;;;;;;;5.30;2.60;;;;;;;;;;102304;1340;31016;-33
2023/01/14 05:07:32;;;;;;;5.10;2.50;;;;;;;;;;102264;1340;29742;-33
2023/01/14 05:10:11;;;;;;;4.90;2.70;;;;;;;;;;102305;1340;28869;-33
2023/01/14 05:12:56;;;;;;;5.20;2.70;;;;;;;;;;101692;1340;894761;-33
2023/01/14 05:15:34;;;;;;;4.90;2.40;;;;;;;;;;102251;1340;31220;-34
2023/01/14 05:18:11;;;;;;;4.50;2.30;;;;;;;;;;102292;1340;29760;-34
2023/01/14 05:21:03;;;;;;;4.80;2.60;;;;;;;;;;102302;1340;29020;-34
2023/01/14 05:23:38;;;;;;;5.20;2.40;;;;;;;;;;102291;1340;30479;-33
2023/01/14 05:26:15;;;;;;;5.20;2.60;;;;;;;;;;102253;1340;31302;-33
2023/01/14 05:28:49;;;;;;;4.80;2.70;;;;;;;;;;102298;1340;29697;-33
2023/01/14 05:31:27;;;;;;;4.20;2.20;;;;;;;;;;102277;1340;29317;-33
2023/01/14 05:34:02;;;;;;;5.10;2.40;;;;;;;;;;102296;1340;30568;-33
2023/01/14 05:36:42;;;;;;;4.70;2.60;;;;;;;;;;102278;1340;31155;-34
2023/01/14 05:39:19;;;;;;;5.50;2.60;;;;;;;;;;102196;1340;176797;-33
2023/01/14 05:47:37;;;;;;;4.60;2.40;;;;;;;;;;102280;1340;30821;-33
2023/01/14 05:50:18;;;;;;;4.50;2.30;;;;;;;;;;102313;1340;31006;-33
2023/01/14 05:52:52;;;;;;;4.60;2.50;;;;;;;;;;102299;1340;28565;-35
2023/01/14 05:55:29;;;;;;;4.60;2.40;;;;;;;;;;102260;1340;30377;-37
2023/01/14 05:58:06;;;;;;;4.70;2.40;;;;;;;;;;102263;1340;31300;-36
2023/01/14 06:06:47;;;;;;;4.30;2.20;;;;;;;;;;102286;1340;30263;-37
2023/01/14 06:09:26;;;;;;;5.30;2.30;;;;;;;;;;102219;1340;176835;-37
2023/01/14 06:12:06;;;;;;;4.70;2.20;;;;;;;;;;102267;1340;29649;-37
2023/01/14 06:14:42;;;;;;;4.70;2.40;;;;;;;;;;102303;1340;28730;-37
2023/01/14 06:17:21;;;;;;;4.40;2.20;;;;;;;;;;102275;1340;31635;-36
2023/01/14 06:19:55;;;;;;;4.30;2.30;;;;;;;;;;102284;1340;31013;-36
2023/01/14 06:22:41;;;;;;;4.50;2.20;;;;;;;;;;102275;1340;29715;-36
2023/01/14 06:25:18;;;;;;;4.70;2.20;;;;;;;;;;102310;1340;28539;-37
2023/01/14 06:27:54;;;;;;;4.50;2.20;;;;;;;;;;102263;1340;30189;-36
2023/01/14 06:30:28;;;;;;;4.80;2.40;;;;;;;;;;102285;1340;30969;-36
2023/01/14 06:33:02;;;;;;;4.40;2.00;;;;;;;;;;102303;1340;30013;-36
2023/01/14 06:35:45;;;;;;;4.20;2.00;;;;;;;;;;102299;1340;28710;-36
2023/01/14 06:38:21;;;;;;;4.30;2.10;;;;;;;;;;102303;1340;30289;-36
2023/01/14 06:40:58;;;;;;;4.40;2.10;;;;;;;;;;102273;1340;31095;-36
2023/01/14 06:43:33;;;;;;;4.40;1.90;;;;;;;;;;102291;1340;29801;-36
2023/01/14 06:46:08;;;;;;;4.30;2.00;;;;;;;;;;102305;1340;28892;-36
2023/01/14 06:48:44;;;;;;;4.60;1.90;;;;;;;;;;102248;1340;30220;-36
2023/01/14 06:51:21;;;;;;;4.30;2.10;;;;;;;;;;102297;1340;32332;-37
2023/01/14 06:53:55;;;;;;;4.10;2.00;;;;;;;;;;102314;1340;29963;-36
2023/01/14 06:56:30;;;;;;;4.30;2.10;;;;;;;;;;102302;1340;28883;-36
2023/01/14 06:59:11;;;;;;;5.20;2.10;;;;;;;;;;102266;1340;30335;-36
2023/01/14 07:01:59;;;;;;;4.40;2.00;;;;;;;;;;102275;1340;31194;-36
2023/01/14 07:04:35;;;;;;;4.00;2.00;;;;;;;;;;102304;1340;30076;-36
2023/01/14 07:07:10;;;;;;;3.80;1.90;;;;;;;;;;102184;1340;182386;-36
2023/01/14 07:09:45;;;;;;;4.40;2.00;;;;;;;;;;102287;1340;38372;-36
2023/01/14 07:12:19;;;;;;;4.10;1.90;;;;;;;;;;102296;1340;31160;-36
2023/01/14 07:14:54;;;;;;;4.40;1.90;;;;;;;;;;102303;1340;30010;-36
2023/01/14 07:17:28;;;;;;;4.40;1.80;;;;;;;;;;102246;1340;28912;-36
2023/01/14 07:20:09;;;;;;;4.20;2.00;;;;;;;;;;102259;1340;38796;-36
2023/01/14 07:22:44;;;;;;;4.40;2.00;;;;;;;;;;102290;1340;31148;-36
2023/01/14 07:25:20;;;;;;;4.30;2.00;;;;;;;;;;102320;1340;31215;-37
2023/01/14 07:27:56;;;;;;;4.20;1.90;;;;;;;;;;102272;1340;29118;-37
2023/01/14 07:30:33;;;;;;;4.30;1.90;;;;;;;;;;102289;1340;30468;-36
2023/01/14 07:33:08;;;;;;;4.20;1.90;;;;;;;;;;102305;1340;32520;-36
2023/01/14 07:35:43;;;;;;;3.90;1.90;;;;;;;;;;102301;1340;29648;-36
2023/01/14 07:38:18;;;;;;;4.10;1.70;;;;;;;;;;102276;1340;28750;-36
2023/01/14 07:40:54;;;;;;;3.70;1.70;;;;;;;;;;102285;1340;30456;-36
2023/01/14 07:43:29;;;;;;;4.70;1.80;;;;;;;;;;102301;1340;31268;-36
2023/01/14 07:46:09;;;;;;;3.90;1.80;;;;;;;;;;102311;1340;29377;-36
2023/01/14 07:48:46;;;;;;;4.40;2.00;;;;;;;;;;101674;1340;895418;-36
2023/01/14 07:51:23;;;;;;;4.40;1.80;;;;;;;;;;102296;1340;30737;-36
2023/01/14 07:53:58;;;;;;;4.00;1.70;;;;;;;;;;102290;1340;30894;-36
2023/01/14 07:56:32;;;;;;;4.00;1.80;;;;;;;;;;102292;1340;29972;-36
2023/01/14 07:59:07;;;;;;;4.10;1.80;;;;;;;;;;102271;1340;29102;-36
2023/01/14 08:01:42;;;;;;;4.00;1.70;;;;;;;;;;102278;1340;30233;-36
2023/01/14 08:04:23;;;;;;;4.40;1.90;;;;;;;;;;102066;1340;361407;-36
2023/01/14 08:06:58;;;;;;;4.90;1.90;;;;;;;;;;102245;1340;31960;-36
2023/01/14 08:09:33;;;;;;;4.50;1.90;;;;;;;;;;102272;1340;28943;-33
2023/01/14 08:12:12;;;;;;;4.50;1.80;;;;;;;;;;102293;1340;30263;-33
2023/01/14 08:14:47;;;;;;;4.60;1.80;;;;;;;;;;102292;1340;30841;-33
2023/01/14 08:17:23;;;;;;;4.70;1.70;;;;;;;;;;102287;1340;30852;-33
2023/01/14 08:20:00;;;;;;;4.80;2.00;;;;;;;;;;102252;1340;28970;-34
2023/01/14 08:22:35;;;;;;;4.30;1.70;;;;;;;;;;102303;1340;30557;-33
2023/01/14 08:25:11;;;;;;;4.10;1.70;;;;;;;;;;102296;1340;31400;-36
2023/01/14 08:27:49;;;;;;;4.60;1.70;;;;;;;;;;102307;1340;29864;-36
2023/01/14 08:30:24;;;;;;;4.60;1.80;;;;;;;;;;102242;1340;28893;-36
2023/01/14 08:33:02;;;;;;;3.80;1.60;;;;;;;;;;102290;1340;30398;-36
2023/01/14 08:35:42;;;;;;;4.50;1.70;;;;;;;;;;102321;1340;31173;-36
2023/01/14 08:38:16;;;;;;;4.50;1.80;;;;;;;;;;102294;1340;29714;-37
2023/01/14 08:40:52;;;;;;;4.50;1.60;;;;;;;;;;102260;1340;28980;-37
2023/01/14 08:43:31;;;;;;;4.80;1.80;;;;;;;;;;102271;1340;30298;-36
2023/01/14 08:46:07;;;;;;;4.10;1.70;;;;;;;;;;102305;1340;30801;-36
2023/01/14 08:48:45;;;;;;;5.10;1.90;;;;;;;;;;102309;1340;29644;-35
2023/01/14 08:51:26;;;;;;;4.70;1.80;;;;;;;;;;102264;1340;28710;-37
2023/01/14 08:54:04;;;;;;;4.40;1.80;;;;;;;;;;102314;1340;31596;-37
2023/01/14 08:56:41;;;;;;;4.40;1.70;;;;;;;;;;102338;1340;30907;-36
2023/01/14 08:59:19;;;;;;;4.50;1.50;;;;;;;;;;102303;1340;29711;-36
2023/01/14 09:01:56;;;;;;;4.50;1.80;;;;;;;;;;102237;1342;37892;-36
2023/01/14 09:04:31;;;;;;;4.40;1.60;;;;;;;;;;102293;1342;30572;-36
2023/01/14 09:18:38;;;;;;;4.90;2.00;;;;;;;;;;102282;1340;31294;-36
2023/01/14 09:21:13;;;;;;;4.50;1.80;;;;;;;;;;102285;1340;29618;-36
2023/01/14 09:23:47;;;;;;;4.40;1.90;;;;;;;;;;102284;1340;28656;-36
2023/01/14 09:26:21;;;;;;;4.10;1.70;;;;;;;;;;102295;1340;30570;-36
2023/01/14 09:28:57;;;;;;;4.50;1.70;;;;;;;;;;102311;1340;31213;-36
2023/01/14 09:31:40;;;;;;;4.00;1.80;;;;;;;;;;102271;1340;29700;-36
2023/01/14 09:34:18;;;;;;;4.10;1.60;;;;;;;;;;102321;1340;29064;-36
2023/01/14 09:36:55;;;;;;;5.10;1.80;;;;;;;;;;102313;1340;30487;-36
2023/01/14 09:39:29;;;;;;;4.60;1.60;;;;;;;;;;102289;1340;31078;-36
2023/01/14 09:42:09;;;;;;;4.60;1.70;;;;;;;;;;102284;1340;29540;-36
2023/01/14 09:44:46;;;;;;;4.80;1.70;;;;;;;;;;102313;1340;28918;-36
2023/01/14 09:47:27;;;;;;;5.20;1.80;;;;;;;;;;102352;1340;30364;-36
2023/01/14 09:50:11;;;;;;;4.00;1.60;;;;;;;;;;102317;1340;32316;-36
2023/01/14 09:53:15;;;;;;;3.90;1.60;;;;;;;;;;102269;1340;30388;-36
2023/01/14 09:55:56;;;;;;;3.90;1.60;;;;;;;;;;102327;1340;28544;-36
2023/01/14 09:58:36;;;;;;;4.20;1.40;;;;;;;;;;102338;1340;30293;-36
2023/01/14 10:01:23;;;;;;;4.20;1.50;;;;;;;;;;102284;1340;30879;-36
2023/01/14 10:04:25;;;;;;;4.30;1.60;;;;;;;;;;102275;1340;29533;-36
2023/01/14 10:07:02;;;;;;;4.40;1.70;;;;;;;;;;102289;1340;28824;-34
2023/01/14 10:09:40;;;;;;;4.00;1.40;;;;;;;;;;102305;1340;30421;-34
2023/01/14 10:12:22;;;;;;;4.60;1.50;;;;;;;;;;102294;1340;31235;-34
2023/01/14 10:15:21;;;;;;;4.30;1.60;;;;;;;;;;102292;1340;29737;-34
2023/01/14 10:18:03;;;;;;;3.80;1.40;;;;;;;;;;102289;1340;28896;-34
2023/01/14 10:20:46;;;;;;;4.10;1.70;;;;;;;;;;102312;1340;30239;-34
2023/01/14 10:23:25;;;;;;;4.10;1.60;;;;;;;;;;102256;1340;31305;-34
2023/01/14 10:26:02;;;;;;;4.10;1.70;;;;;;;;;;102340;1340;29781;-34
2023/01/14 10:28:36;;;;;;;4.40;1.60;;;;;;;;;;102304;1340;28817;-34
2023/01/14 10:31:17;;;;;;;3.80;1.60;;;;;;;;;;102292;1340;30484;-34
2023/01/14 10:33:52;;;;;;;4.80;1.70;;;;;;;;;;102243;1340;42530;-34
2023/01/14 10:36:29;;;;;;;4.40;1.60;;;;;;;;;;102304;1340;29450;-34
2023/01/14 10:39:10;;;;;;;5.50;1.60;;;;;;;;;;102299;1340;28931;-34
2023/01/14 10:41:50;;;;;;;4.60;1.90;;;;;;;;;;102252;1340;30204;-33
2023/01/14 10:44:32;;;;;;;4.40;1.80;;;;;;;;;;101655;1340;893013;-34
2023/01/14 10:47:14;;;;;;;4.80;1.80;;;;;;;;;;102301;1340;29740;-34
2023/01/14 10:49:54;;;;;;;3.80;1.70;;;;;;;;;;102300;1340;28626;-34
2023/01/14 10:52:34;;;;;;;4.80;1.80;;;;;;;;;;102269;1340;30606;-34
2023/01/14 10:55:18;;;;;;;4.00;1.50;;;;;;;;;;102331;1340;30941;-34
2023/01/14 10:57:59;;;;;;;4.10;1.60;;;;;;;;;;102301;1340;31066;-34
2023/01/14 11:00:37;;;;;;;;;;;;;;;;;;102366;1341;28906;-34
2023/01/14 11:03:20;;;;;;;3.70;1.50;;;;;;;;;;102287;1340;30213;-34
2023/01/14 11:06:01;;;;;;;4.70;1.70;;;;;;;;;;102266;1340;31107;-34
2023/01/14 11:08:42;;;;;;;4.30;1.60;;;;;;;;;;102250;1340;178673;-34
2023/01/14 11:11:20;;;;;;;5.40;2.00;;;;;;;;;;102303;1340;29067;-35
2023/01/14 11:13:56;;;;;;;3.90;1.40;;;;;;;;;;102279;1340;30247;-34
2023/01/14 11:16:36;;;;;;;4.70;1.80;;;;;;;;;;102302;1340;31069;-34
2023/01/14 11:19:24;;;;;;;4.50;1.70;;;;;;;;;;102151;1340;176799;-34
2023/01/14 11:22:04;;;;;;;4.90;1.90;;;;;;;;;;102348;1340;28931;-35
2023/01/14 11:24:46;;;;;;;3.90;1.60;;;;;;;;;;102268;1340;30645;-35
2023/01/14 11:27:23;;;;;;;4.90;1.80;;;;;;;;;;102345;1340;31142;-34
2023/01/14 11:30:02;;;;;;;4.50;1.60;;;;;;;;;;102310;1340;31114;-34
2023/01/14 11:32:40;;;;;;;4.50;1.90;;;;;;;;;;102314;1340;28854;-34
2023/01/14 11:35:28;;;;;;;4.00;1.70;;;;;;;;;;102418;1340;41306;-35
2023/01/14 11:38:06;;;;;;;4.30;1.60;;;;;;;;;;102295;1340;31216;-35
2023/01/14 11:43:42;;;;;;;4.50;1.60;;;;;;;;;;102284;1340;29166;-34
2023/01/14 11:46:17;;;;;;;4.40;1.70;;;;;;;;;;102257;1340;30227;-34
2023/01/14 11:49:04;;;;;;;4.30;1.60;;;;;;;;;;102272;1340;31239;-34
2023/01/14 11:51:41;;;;;;;4.20;1.50;;;;;;;;;;102272;1340;29812;-35
2023/01/14 11:54:22;;;;;;;4.90;1.70;;;;;;;;;;102238;1340;28655;-34
2023/01/14 11:56:59;;;;;;;4.30;1.50;;;;;;;;;;102275;1340;30444;-35
2023/01/14 11:59:38;;;;;;;4.70;1.70;;;;;;;;;;102270;1340;31773;-34
2023/01/14 12:02:22;;;;;;;4.00;1.50;;;;;;;;;;102299;1340;29765;-35
2023/01/14 12:05:03;;;;;;;4.50;1.60;;;;;;;;;;102280;1340;28629;-34
2023/01/14 12:07:43;;;;;;;4.10;1.60;;;;;;;;;;102310;1340;30347;-34
2023/01/14 12:10:26;;;;;;;5.20;1.60;;;;;;;;;;102307;1340;32582;-34
2023/01/14 12:19:15;;;;;;;4.90;1.50;;;;;;;;;;102261;1342;30460;-36
2023/01/14 12:21:59;;;;;;;5.40;1.70;;;;;;;;;;102151;1343;176561;-36
2023/01/14 12:24:43;;;;;;;5.20;1.50;;;;;;;;;;102245;1340;29790;-36
2023/01/14 12:27:42;;;;;;;4.80;1.50;;;;;;;;;;102301;1340;29093;-34
2023/01/14 12:30:46;;;;;;;4.20;1.40;;;;;;;;;;102319;1340;31237;-34
2023/01/14 12:33:36;;;;;;;4.90;1.50;;;;;;;;;;102302;1340;32453;-34
2023/01/14 12:36:19;;;;;;;4.60;1.60;;;;;;;;;;102237;1340;29845;-34
2023/01/14 12:47:51;;;;;;;5.40;2.00;;;;;;;;;;102270;1340;29737;-35
2023/01/14 12:50:29;;;;;;;5.40;2.50;;;;;;;;;;102309;1340;28946;-37
2023/01/14 12:53:04;;;;;;;5.20;2.50;;;;;;;;;;102243;1340;30495;-37
2023/01/14 12:55:44;;;;;;;5.80;2.70;;;;;;;;;;102247;1340;31344;-36
2023/01/14 12:58:23;;;;;;;5.30;2.60;;;;;;;;;;102260;1340;31011;-37
2023/01/14 13:01:05;;;;;;;6.90;2.70;;;;;;;;;;102289;1340;30244;-37
2023/01/14 13:03:48;;;;;;;6.40;2.90;;;;;;;;;;102297;1340;30286;-36
2023/01/14 13:06:29;;;;;;;6.10;2.70;;;;;;;;;;102254;1340;30829;-36
2023/01/14 13:09:07;;;;;;;6.00;2.80;;;;;;;;;;102320;1340;29689;-36
2023/01/14 13:11:48;;;;;;;6.60;2.70;;;;;;;;;;102308;1340;29295;-36
2023/01/14 13:14:34;;;;;;;5.10;2.40;;;;;;;;;;102287;1340;30703;-36
2023/01/14 13:17:21;;;;;;;6.10;2.60;;;;;;;;;;102254;1340;31315;-36
2023/01/14 13:19:58;;;;;;;6.30;2.60;;;;;;;;;;102283;1340;29424;-36
2023/01/14 13:22:53;;;;;;;6.20;2.50;;;;;;;;;;102338;1340;29158;-36
2023/01/14 13:25:54;;;;;;;5.00;2.20;;;;;;;;;;102301;1340;30438;-36
2023/01/14 13:29:07;;;;;;;5.60;2.30;;;;;;;;;;102287;1340;31109;-37
2023/01/14 13:31:41;;;;;;;5.60;2.10;;;;;;;;;;102313;1340;29931;-37
2023/01/14 13:35:05;;;;;;;5.30;2.40;;;;;;;;;;102305;1340;28794;-36
2023/01/14 13:37:48;;;;;;;5.80;2.50;;;;;;;;;;102245;1340;30679;-34
2023/01/14 13:40:27;;;;;;;4.90;2.10;;;;;;;;;;102260;1340;31376;-34
2023/01/14 13:43:06;;;;;;;5.10;2.00;;;;;;;;;;102302;1340;29604;-34
2023/01/14 13:45:43;;;;;;;6.10;2.60;;;;;;;;;;102132;1340;176746;-34
2023/01/14 13:48:26;;;;;;;4.80;2.10;;;;;;;;;;102281;1340;40849;-34
2023/01/14 13:51:20;;;;;;;5.80;1.90;;;;;;;;;;102293;1340;32347;-35
2023/01/14 13:54:02;;;;;;;5.20;1.90;;;;;;;;;;102295;1340;29749;-36
2023/01/14 13:57:09;;;;;;;5.70;2.00;;;;;;;;;;102306;1340;28562;-34
2023/01/14 13:59:52;;;;;;;6.10;1.90;;;;;;;;;;102287;1340;31509;-34
2023/01/14 14:02:50;;;;;;;5.70;2.10;;;;;;;;;;102300;1340;31334;-34
2023/01/14 14:05:29;;;;;;;5.40;2.00;;;;;;;;;;102331;1340;31268;-34
2023/01/14 14:08:27;;;;;;;5.20;1.90;;;;;;;;;;102263;1340;28787;-35
2023/01/14 14:11:15;;;;;;;4.70;1.90;;;;;;;;;;102290;1340;30538;-36
2023/01/14 14:14:05;;;;;;;4.90;1.90;;;;;;;;;;102299;1340;31567;-36
2023/01/14 14:16:48;;;;;;;5.30;1.80;;;;;;;;;;102260;1340;29489;-36
2023/01/14 14:19:27;;;;;;;5.40;2.00;;;;;;;;;;102295;1340;29072;-36
2023/01/14 14:22:14;;;;;;;6.60;2.10;;;;;;;;;;102292;1340;30251;-36
2023/01/14 14:24:54;;;;;;;6.50;2.30;;;;;;;;;;102352;1340;31390;-37
2023/01/14 14:27:37;;;;;;;5.80;2.20;;;;;;;;;;102285;1340;30919;-36
2023/01/14 14:30:24;;;;;;;5.60;2.20;;;;;;;;;;102311;1340;29208;-36
2023/01/14 14:33:07;;;;;;;7.10;2.50;;;;;;;;;;102269;1340;30502;-34
2023/01/14 14:35:45;;;;;;;5.60;2.30;;;;;;;;;;102274;1340;31283;-34
2023/01/14 14:38:20;;;;;;;5.00;2.20;;;;;;;;;;102218;1340;30000;-36
2023/01/14 14:40:58;;;;;;;6.10;2.30;;;;;;;;;;102246;1340;28746;-36
2023/01/14 14:43:33;;;;;;;6.90;2.80;;;;;;;;;;102292;1340;30438;-35
2023/01/14 14:46:10;;;;;;;7.10;2.40;;;;;;;;;;102279;1340;31442;-35
2023/01/14 14:48:44;;;;;;;6.30;2.60;;;;;;;;;;102310;1340;29925;-35
2023/01/14 14:51:26;;;;;;;6.80;3.00;;;;;;;;;;102298;1340;29114;-35
2023/01/14 14:54:02;;;;;;;5.80;2.40;;;;;;;;;;102305;1340;32644;-35
2023/01/14 14:56:40;;;;;;;5.40;2.50;;;;;;;;;;102254;1340;31248;-35
2023/01/14 14:59:15;;;;;;;6.20;2.70;;;;;;;;;;102259;1340;29810;-35
2023/01/14 15:01:50;;;;;;;7.00;2.50;;;;;;;;;;102297;1340;30344;-36
2023/01/14 15:04:28;;;;;;;5.90;2.50;;;;;;;;;;102294;1340;30410;-36
2023/01/14 15:07:04;;;;;;;6.70;2.70;;;;;;;;;;102272;1340;32466;-35
2023/01/14 15:09:42;;;;;;;6.10;2.70;;;;;;;;;;102246;1340;29704;-36
2023/01/14 15:12:21;;;;;;;6.30;2.60;;;;;;;;;;102258;1340;28928;-36
2023/01/14 15:15:05;;;;;;;6.40;2.50;;;;;;;;;;102317;1340;30490;-36
2023/01/14 15:17:39;;;;;;;6.10;2.50;;;;;;;;;;102310;1340;32496;-36
2023/01/14 15:20:19;;;;;;;5.90;2.40;;;;;;;;;;102359;1340;40516;-36
2023/01/14 15:22:58;;;;;;;6.40;2.50;;;;;;;;;;102341;1340;29072;-35
2023/01/14 15:25:34;;;;;;;6.30;2.60;;;;;;;;;;102328;1340;31708;-36
2023/01/14 15:28:18;;;;;;;5.90;2.50;;;;;;;;;;102302;1340;31317;-36
2023/01/14 15:31:03;;;;;;;6.90;2.70;;;;;;;;;;102308;1340;31006;-36
2023/01/14 15:33:43;;;;;;;5.50;2.40;;;;;;;;;;102321;1340;29068;-36
2023/01/14 15:36:23;;;;;;;6.20;2.30;;;;;;;;;;102317;1340;30335;-36
2023/01/14 15:39:04;;;;;;;6.10;2.90;;;;;;;;;;102241;1340;31284;-36
2023/01/14 15:41:44;;;;;;;6.10;2.50;;;;;;;;;;102299;1340;29349;-35
2023/01/14 15:44:25;;;;;;;5.40;2.40;;;;;;;;;;102290;1340;30874;-36
2023/01/14 15:47:02;;;;;;;5.40;2.50;;;;;;;;;;102266;1340;30539;-34
2023/01/14 15:49:41;;;;;;;5.40;2.20;;;;;;;;;;102243;1340;33712;-34
2023/01/14 15:52:34;;;;;;;6.80;2.80;;;;;;;;;;102304;1340;29814;-34
2023/01/14 15:55:25;;;;;;;6.00;2.60;;;;;;;;;;102287;1340;28955;-34
2023/01/14 15:58:02;;;;;;;5.80;3.00;;;;;;;;;;102274;1340;30403;-34
2023/01/14 16:00:45;;;;;;;5.30;2.60;;;;;;;;;;102245;1340;31150;-34
2023/01/14 16:03:45;;;;;;;6.60;2.90;;;;;;;;;;102268;1340;31220;-35
2023/01/14 16:06:39;;;;;;;5.60;2.60;;;;;;;;;;101514;1340;895925;-35
2023/01/14 16:09:18;;;;;;;5.50;2.60;;;;;;;;;;102272;1340;30434;-35
2023/01/14 16:11:55;;;;;;;6.50;2.90;;;;;;;;;;102276;1340;31170;-35
2023/01/14 16:14:36;;;;;;;5.70;2.70;;;;;;;;;;102273;1340;29735;-35
2023/01/14 16:17:16;;;;;;;5.40;2.70;;;;;;;;;;102268;1340;28608;-36
2023/01/14 16:19:56;;;;;;;5.70;2.60;;;;;;;;;;102259;1340;32869;-36
2023/01/14 16:22:32;;;;;;;6.10;2.90;;;;;;;;;;102290;1340;31695;-36
2023/01/14 16:25:08;;;;;;;5.70;2.80;;;;;;;;;;102299;1340;29720;-36
2023/01/14 16:27:44;;;;;;;6.60;2.90;;;;;;;;;;102305;1340;29102;-36
2023/01/14 16:30:20;;;;;;;6.20;3.00;;;;;;;;;;102313;1340;32065;-36
2023/01/14 16:33:13;;;;;;;5.70;2.50;;;;;;;;;;102313;1340;30976;-36